createdAt,value
2018-05-31T00:01:23.419Z,11.40
2018-05-31T00:03:50.131Z,10.97
2018-05-31T00:06:21.765Z,9.57
2018-05-31T00:08:49.214Z,11.07
2018-05-31T00:11:16.671Z,10.77
2018-05-31T00:13:43.376Z,9.97
2018-05-31T00:16:10.066Z,17.27
2018-05-31T00:18:36.778Z,20.67
2018-05-31T00:21:03.855Z,25.13
2018-05-31T00:23:30.547Z,20.17
2018-05-31T00:25:57.253Z,14.10
2018-05-31T00:28:25.604Z,16.50
2018-05-31T00:30:52.371Z,21.10
2018-05-31T00:33:19.091Z,29.73
2018-05-31T00:35:45.786Z,29.40
2018-05-31T00:38:12.599Z,26.47
2018-05-31T00:40:39.319Z,25.50
2018-05-31T00:43:06.136Z,16.53
2018-05-31T00:45:33.619Z,14.33
2018-05-31T00:48:00.326Z,12.30
2018-05-31T00:50:27.903Z,10.83
2018-05-31T00:52:54.586Z,11.40
2018-05-31T00:55:39.960Z,12.33
2018-05-31T00:58:06.666Z,12.07
2018-05-31T01:00:34.989Z,11.33
2018-05-31T01:03:02.234Z,10.37
2018-05-31T01:05:29.085Z,10.37
2018-05-31T01:07:55.823Z,9.07
2018-05-31T01:10:22.539Z,8.37
2018-05-31T01:12:49.267Z,7.23
2018-05-31T01:15:15.994Z,8.10
2018-05-31T01:17:42.726Z,8.33
2018-05-31T01:20:10.159Z,8.13
2018-05-31T01:22:36.874Z,7.37
2018-05-31T01:25:03.629Z,8.90
2018-05-31T01:27:30.334Z,7.40
2018-05-31T01:29:57.080Z,7.80
2018-05-31T01:32:23.783Z,8.10
2018-05-31T01:34:50.494Z,7.60
2018-05-31T01:37:17.994Z,7.90
2018-05-31T01:39:44.734Z,9.30
2018-05-31T01:42:11.704Z,9.33
2018-05-31T01:44:38.421Z,38.47
2018-05-31T01:47:05.126Z,14.63
2018-05-31T01:49:32.581Z,32.00
2018-05-31T01:52:00.015Z,14.33
2018-05-31T01:54:26.719Z,17.43
2018-05-31T01:56:53.443Z,29.50
2018-05-31T01:59:20.134Z,23.37
2018-05-31T02:01:46.832Z,10.63
2018-05-31T02:04:13.518Z,16.23
2018-05-31T02:06:40.218Z,16.33
2018-05-31T02:09:06.919Z,15.67
2018-05-31T02:11:34.359Z,14.27
2018-05-31T02:14:01.069Z,14.50
2018-05-31T02:16:27.813Z,10.67
2018-05-31T02:18:54.519Z,11.27
2018-05-31T02:21:21.236Z,9.47
2018-05-31T02:23:47.949Z,8.63
2018-05-31T02:26:14.647Z,8.67
2018-05-31T02:28:41.361Z,9.23
2018-05-31T02:31:08.079Z,9.37
2018-05-31T02:33:35.554Z,6.87
2018-05-31T02:36:02.241Z,8.07
2018-05-31T02:38:28.934Z,7.97
2018-05-31T02:40:55.645Z,7.10
2018-05-31T02:43:23.082Z,7.20
2018-05-31T02:45:49.791Z,8.03
2018-05-31T02:48:16.491Z,6.27
2018-05-31T02:50:43.919Z,5.47
2018-05-31T02:53:10.631Z,6.20
2018-05-31T02:55:37.311Z,5.57
2018-05-31T02:58:04.779Z,6.00
2018-05-31T03:00:31.471Z,7.17
2018-05-31T03:02:58.173Z,7.20
2018-05-31T03:05:24.901Z,8.67
2018-05-31T03:07:51.622Z,9.53
2018-05-31T03:10:19.080Z,7.73
2018-05-31T03:12:46.512Z,7.30
2018-05-31T03:15:13.194Z,7.47
2018-05-31T03:17:39.886Z,5.50
2018-05-31T03:20:06.587Z,5.50
2018-05-31T03:22:33.281Z,5.37
2018-05-31T03:24:59.979Z,6.83
2018-05-31T03:27:26.688Z,7.13
2018-05-31T03:29:54.114Z,6.93
2018-05-31T03:32:21.632Z,8.37
2018-05-31T03:34:48.364Z,7.70
2018-05-31T03:37:15.056Z,7.87
2018-05-31T03:39:41.802Z,10.00
2018-05-31T03:42:09.238Z,11.00
2018-05-31T03:44:35.941Z,16.53
2018-05-31T03:47:02.656Z,19.20
2018-05-31T03:49:29.358Z,14.90
2018-05-31T03:51:56.066Z,13.63
2018-05-31T03:54:22.766Z,14.10
2018-05-31T03:56:50.197Z,10.13
2018-05-31T03:59:16.906Z,11.73
2018-05-31T04:01:43.647Z,10.13
2018-05-31T04:04:10.354Z,13.27
2018-05-31T04:06:37.049Z,12.43
2018-05-31T04:09:06.794Z,7.63
2018-05-31T04:11:34.228Z,8.87
2018-05-31T04:14:01.707Z,7.30
2018-05-31T04:16:28.399Z,7.03
2018-05-31T04:18:55.123Z,5.37
2018-05-31T04:21:21.823Z,8.30
2018-05-31T04:23:49.255Z,8.63
2018-05-31T04:26:16.759Z,9.67
2018-05-31T04:28:43.459Z,15.27
2018-05-31T04:31:11.667Z,16.03
2018-05-31T04:33:38.455Z,17.53
2018-05-31T04:36:05.152Z,14.13
2018-05-31T04:38:31.871Z,19.40
2018-05-31T04:40:58.705Z,13.47
2018-05-31T04:43:25.386Z,15.97
2018-05-31T04:45:52.079Z,21.27
2018-05-31T04:48:19.516Z,26.10
2018-05-31T04:50:47.011Z,11.53
2018-05-31T04:53:13.691Z,6.57
2018-05-31T04:55:40.414Z,4.90
2018-05-31T04:58:07.111Z,4.20
2018-05-31T05:00:34.596Z,4.17
2018-05-31T05:03:01.329Z,4.00
2018-05-31T05:05:28.103Z,4.17
2018-05-31T05:07:54.952Z,2.77
2018-05-31T05:10:21.653Z,3.73
2018-05-31T05:12:48.358Z,3.40
2018-05-31T05:15:15.840Z,3.80
2018-05-31T05:17:42.569Z,3.80
2018-05-31T05:20:09.991Z,4.00
2018-05-31T05:22:36.716Z,3.97
2018-05-31T05:25:03.433Z,3.97
2018-05-31T05:27:30.306Z,4.57
2018-05-31T05:29:57.054Z,4.17
2018-05-31T05:38:32.874Z,4.70
2018-05-31T05:41:00.718Z,4.37
2018-05-31T05:43:27.812Z,4.40
2018-05-31T05:45:54.906Z,4.40
2018-05-31T05:48:21.966Z,4.20
2018-05-31T05:50:49.093Z,4.13
2018-05-31T05:53:16.169Z,4.20
2018-05-31T05:55:43.298Z,4.70
2018-05-31T05:58:11.439Z,4.77
2018-05-31T06:00:39.261Z,6.00
2018-05-31T06:03:06.319Z,15.50
2018-05-31T06:05:33.356Z,20.87
2018-05-31T06:08:00.437Z,18.50
2018-05-31T06:10:28.292Z,21.53
2018-05-31T06:12:56.199Z,22.17
2018-05-31T06:15:23.253Z,21.57
2018-05-31T06:17:50.319Z,18.83
2018-05-31T06:20:17.624Z,16.53
2018-05-31T06:22:45.423Z,15.53
2018-05-31T06:25:12.504Z,16.23
2018-05-31T06:27:39.499Z,13.90
2018-05-31T06:30:06.661Z,13.33
2018-05-31T06:32:39.762Z,12.30
2018-05-31T06:35:07.071Z,11.87
2018-05-31T06:37:34.187Z,11.97
2018-05-31T06:40:01.203Z,9.83
2018-05-31T06:42:28.194Z,9.30
2018-05-31T06:44:55.229Z,9.10
2018-05-31T06:47:22.247Z,7.80
2018-05-31T06:49:49.301Z,7.70
2018-05-31T06:52:16.326Z,7.10
2018-05-31T06:54:44.101Z,7.33
2018-05-31T06:57:11.138Z,6.87
2018-05-31T06:59:38.211Z,6.80
2018-05-31T07:02:05.249Z,8.03
2018-05-31T07:04:32.292Z,6.70
2018-05-31T07:07:05.261Z,7.27
2018-05-31T07:09:33.215Z,7.10
2018-05-31T07:12:00.257Z,6.87
2018-05-31T07:14:27.290Z,6.20
2018-05-31T07:16:54.407Z,6.53
2018-05-31T07:19:27.351Z,6.23
2018-05-31T07:21:54.627Z,6.17
2018-05-31T07:24:21.639Z,6.17
2018-05-31T07:26:48.639Z,6.32
2018-05-31T07:29:15.669Z,6.68
2018-05-31T07:31:43.589Z,6.37
2018-05-31T07:34:10.632Z,6.10
2018-05-31T07:36:38.624Z,5.50
2018-05-31T07:39:05.697Z,5.63
2018-05-31T07:41:33.494Z,5.90
2018-05-31T07:44:00.556Z,5.33
2018-05-31T07:46:27.583Z,5.83
2018-05-31T07:48:54.619Z,6.03
2018-05-31T07:51:28.419Z,5.85
2018-05-31T07:53:56.186Z,6.00
2018-05-31T07:56:23.211Z,5.68
2018-05-31T07:58:50.211Z,5.72
2018-05-31T08:01:17.260Z,5.87
2018-05-31T08:03:44.276Z,5.78
2018-05-31T08:06:12.017Z,6.53
2018-05-31T08:08:39.056Z,6.00
2018-05-31T08:11:06.115Z,6.32
2018-05-31T08:13:39.944Z,5.78
2018-05-31T08:16:07.687Z,6.10
2018-05-31T08:18:35.455Z,6.12
2018-05-31T08:21:03.259Z,5.90
2018-05-31T08:23:30.307Z,5.85
2018-05-31T08:25:57.324Z,5.22
2018-05-31T08:28:25.118Z,5.45
2018-05-31T08:30:52.103Z,5.30
2018-05-31T08:33:19.080Z,6.20
2018-05-31T08:35:46.862Z,5.30
2018-05-31T08:38:13.901Z,5.40
2018-05-31T08:40:40.924Z,5.72
2018-05-31T08:43:09.662Z,5.22
2018-05-31T08:45:36.683Z,4.82
2018-05-31T08:48:03.706Z,5.45
2018-05-31T08:50:30.729Z,5.87
2018-05-31T08:52:57.769Z,5.82
2018-05-31T08:55:24.791Z,5.22
2018-05-31T08:57:51.782Z,5.25
2018-05-31T09:00:18.797Z,5.68
2018-05-31T09:02:45.796Z,5.03
2018-05-31T09:05:13.275Z,5.20
2018-05-31T09:07:40.374Z,5.75
2018-05-31T09:10:07.417Z,4.80
2018-05-31T09:12:34.477Z,5.57
2018-05-31T09:15:01.486Z,5.40
2018-05-31T09:17:28.497Z,4.82
2018-05-31T09:19:57.054Z,5.50
2018-05-31T09:22:24.044Z,4.75
2018-05-31T09:24:51.829Z,5.40
2018-05-31T09:27:18.852Z,4.97
2018-05-31T09:29:46.606Z,4.93
2018-05-31T09:32:14.501Z,4.97
2018-05-31T09:34:41.574Z,4.68
2018-05-31T09:37:08.582Z,4.57
2018-05-31T09:39:36.320Z,4.82
2018-05-31T09:42:04.217Z,4.75
2018-05-31T09:44:32.850Z,4.40
2018-05-31T09:46:59.856Z,4.80
2018-05-31T09:49:27.799Z,4.15
2018-05-31T09:51:54.862Z,4.82
2018-05-31T09:54:22.691Z,4.70
2018-05-31T09:56:49.734Z,4.70
2018-05-31T09:59:16.742Z,4.97
2018-05-31T10:01:43.742Z,4.60
2018-05-31T10:04:10.749Z,4.45
2018-05-31T10:06:37.762Z,4.62
2018-05-31T10:09:04.884Z,4.53
2018-05-31T10:11:31.872Z,5.07
2018-05-31T10:13:58.869Z,5.60
2018-05-31T10:16:25.866Z,4.60
2018-05-31T10:18:53.595Z,5.28
2018-05-31T10:21:20.627Z,5.30
2018-05-31T10:23:47.653Z,5.47
2018-05-31T10:26:14.654Z,4.82
2018-05-31T10:28:41.676Z,4.97
2018-05-31T10:31:08.694Z,4.80
2018-05-31T10:33:35.714Z,4.85
2018-05-31T10:36:03.552Z,4.95
2018-05-31T10:38:30.607Z,4.95
2018-05-31T10:40:58.503Z,4.68
2018-05-31T10:43:25.622Z,5.22
2018-05-31T10:45:52.665Z,5.30
2018-05-31T10:48:19.699Z,5.53
2018-05-31T10:50:46.716Z,5.18
2018-05-31T10:53:13.755Z,5.05
2018-05-31T10:55:40.805Z,4.80
2018-05-31T10:58:21.146Z,5.00
2018-05-31T11:00:48.217Z,4.57
2018-05-31T11:03:15.290Z,5.60
2018-05-31T11:05:42.307Z,4.68
2018-05-31T11:08:09.316Z,4.82
2018-05-31T11:10:36.324Z,4.25
2018-05-31T11:13:03.361Z,5.00
2018-05-31T11:15:36.437Z,4.70
2018-05-31T11:18:03.535Z,5.18
2018-05-31T11:20:36.454Z,5.15
2018-05-31T11:23:04.305Z,5.47
2018-05-31T11:25:31.437Z,4.55
2018-05-31T11:27:58.453Z,4.65
2018-05-31T11:30:25.447Z,4.57
2018-05-31T11:32:52.517Z,4.75
2018-05-31T11:35:20.290Z,5.18
2018-05-31T11:37:47.307Z,5.78
2018-05-31T11:40:14.345Z,5.15
2018-05-31T11:42:41.440Z,5.90
2018-05-31T11:45:20.640Z,5.68
2018-05-31T11:47:48.982Z,5.25
2018-05-31T11:50:16.004Z,5.70
2018-05-31T11:52:43.080Z,5.32
2018-05-31T11:55:10.195Z,7.55
2018-05-31T11:57:37.242Z,5.30
2018-05-31T12:00:04.512Z,5.60
2018-05-31T12:02:31.615Z,5.65
2018-05-31T12:04:58.648Z,5.28
2018-05-31T12:07:25.927Z,5.05
2018-05-31T12:09:53.812Z,5.35
2018-05-31T12:12:20.795Z,5.32
2018-05-31T12:14:47.810Z,5.22
2018-05-31T12:17:15.757Z,5.80
2018-05-31T12:19:43.604Z,5.35
2018-05-31T12:22:10.715Z,5.43
2018-05-31T12:24:37.767Z,5.22
2018-05-31T12:27:04.930Z,5.25
2018-05-31T12:29:31.979Z,5.50
2018-05-31T12:31:59.782Z,5.78
2018-05-31T12:34:27.514Z,5.30
2018-05-31T12:36:54.656Z,5.45
2018-05-31T12:39:21.670Z,5.90
2018-05-31T12:41:48.769Z,5.75
2018-05-31T12:44:15.809Z,5.75
2018-05-31T12:46:42.968Z,5.65
2018-05-31T12:49:10.860Z,6.10
2018-05-31T12:51:38.907Z,5.55
2018-05-31T12:54:06.065Z,5.87
2018-05-31T12:56:33.101Z,4.80
2018-05-31T12:59:00.191Z,5.47
2018-05-31T13:01:27.245Z,5.50
2018-05-31T13:03:54.279Z,5.55
2018-05-31T13:06:21.337Z,5.45
2018-05-31T13:08:48.359Z,5.43
2018-05-31T13:11:15.439Z,5.93
2018-05-31T13:13:42.483Z,5.53
2018-05-31T13:16:09.491Z,5.45
2018-05-31T13:18:36.515Z,5.25
2018-05-31T13:21:03.569Z,5.75
2018-05-31T13:23:30.571Z,5.68
2018-05-31T13:25:57.574Z,5.80
2018-05-31T13:28:24.626Z,5.87
2018-05-31T13:30:51.651Z,5.30
2018-05-31T13:33:18.757Z,5.37
2018-05-31T13:35:46.489Z,5.57
2018-05-31T13:38:13.541Z,5.78
2018-05-31T13:40:40.563Z,5.80
2018-05-31T13:43:07.929Z,6.00
2018-05-31T13:45:35.039Z,5.65
2018-05-31T13:48:07.974Z,5.50
2018-05-31T13:50:36.599Z,5.57
2018-05-31T13:53:04.524Z,6.30
2018-05-31T13:55:31.566Z,5.87
2018-05-31T13:57:58.619Z,6.25
2018-05-31T14:00:25.696Z,5.93
2018-05-31T14:02:54.253Z,6.55
2018-05-31T14:05:21.371Z,6.00
2018-05-31T14:07:49.100Z,6.20
2018-05-31T14:10:16.757Z,6.03
2018-05-31T14:12:43.804Z,6.03
2018-05-31T14:15:10.887Z,6.72
2018-05-31T14:17:38.012Z,6.12
2018-05-31T14:20:05.125Z,5.90
2018-05-31T14:22:38.121Z,5.65
2018-05-31T14:25:05.197Z,6.10
2018-05-31T14:27:32.294Z,6.00
2018-05-31T14:29:59.457Z,5.93
2018-05-31T14:32:26.619Z,5.80
2018-05-31T14:34:53.663Z,5.90
2018-05-31T14:37:20.719Z,5.70
2018-05-31T14:39:49.189Z,6.03
2018-05-31T14:42:16.292Z,6.20
2018-05-31T14:44:43.362Z,5.57
2018-05-31T14:47:10.374Z,5.55
2018-05-31T14:49:37.387Z,6.22
2018-05-31T14:52:05.496Z,6.07
2018-05-31T14:54:32.499Z,5.35
2018-05-31T14:56:59.602Z,5.22
2018-05-31T14:59:26.692Z,5.37
2018-05-31T15:01:53.727Z,5.97
2018-05-31T15:04:20.749Z,5.75
2018-05-31T15:06:47.759Z,6.10
2018-05-31T15:09:15.507Z,5.87
2018-05-31T15:11:43.288Z,5.80
2018-05-31T15:14:10.277Z,5.70
2018-05-31T15:16:37.299Z,6.35
2018-05-31T15:19:05.085Z,6.68
2018-05-31T15:21:32.218Z,6.55
2018-05-31T15:24:00.725Z,6.50
2018-05-31T15:26:27.702Z,6.18
2018-05-31T15:29:00.560Z,6.28
2018-05-31T15:31:27.581Z,6.07
2018-05-31T15:33:55.355Z,6.12
2018-05-31T15:36:22.393Z,6.68
2018-05-31T15:38:50.149Z,6.37
2018-05-31T15:41:23.950Z,6.47
2018-05-31T15:43:51.861Z,6.12
2018-05-31T15:46:18.902Z,6.28
2018-05-31T15:48:46.035Z,6.60
2018-05-31T15:51:13.831Z,7.55
2018-05-31T15:53:40.899Z,7.35
2018-05-31T15:56:07.933Z,7.15
2018-05-31T15:58:34.952Z,6.57
2018-05-31T16:01:07.884Z,7.22
2018-05-31T16:03:34.915Z,7.30
2018-05-31T16:06:01.995Z,7.12
2018-05-31T16:08:35.094Z,7.85
2018-05-31T16:11:02.916Z,7.22
2018-05-31T16:13:29.950Z,7.53
2018-05-31T16:15:56.922Z,7.20
2018-05-31T16:18:29.839Z,7.30
2018-05-31T16:20:57.614Z,8.45
2018-05-31T16:23:25.411Z,7.40
2018-05-31T16:25:52.494Z,7.65
2018-05-31T16:28:19.521Z,8.02
2018-05-31T16:30:47.274Z,8.05
2018-05-31T16:33:14.303Z,7.75
2018-05-31T16:35:41.287Z,7.95
2018-05-31T16:38:08.351Z,7.93
2018-05-31T16:40:35.372Z,7.53
2018-05-31T16:43:02.430Z,7.90
2018-05-31T16:45:29.484Z,8.27
2018-05-31T16:48:02.707Z,7.78
2018-05-31T16:50:29.768Z,7.60
2018-05-31T16:52:57.501Z,7.47
2018-05-31T16:55:24.523Z,8.40
2018-05-31T16:57:51.555Z,8.43
2018-05-31T17:00:18.569Z,8.23
2018-05-31T17:02:46.414Z,8.50
2018-05-31T17:05:13.499Z,7.78
2018-05-31T17:07:40.585Z,8.18
2018-05-31T17:10:07.633Z,8.23
2018-05-31T17:12:34.659Z,7.97
2018-05-31T17:15:01.715Z,8.07
2018-05-31T17:17:28.732Z,8.67
2018-05-31T17:19:56.531Z,7.97
2018-05-31T17:22:23.542Z,7.90
2018-05-31T17:24:51.325Z,8.40
2018-05-31T17:27:18.349Z,8.10
2018-05-31T17:29:46.123Z,9.30
2018-05-31T17:32:14.650Z,8.17
2018-05-31T17:34:41.666Z,8.50
2018-05-31T17:37:08.780Z,8.60
2018-05-31T17:39:36.550Z,8.27
2018-05-31T17:42:04.384Z,8.33
2018-05-31T17:44:31.439Z,7.60
2018-05-31T17:46:58.446Z,7.63
2018-05-31T17:49:25.510Z,8.40
2018-05-31T17:51:52.617Z,8.50
2018-05-31T17:54:20.404Z,8.10
2018-05-31T17:56:47.421Z,9.07
2018-05-31T17:59:14.472Z,7.90
2018-05-31T18:01:42.269Z,9.03
2018-05-31T18:04:09.262Z,8.60
2018-05-31T18:06:36.261Z,8.37
2018-05-31T18:09:03.509Z,9.27
2018-05-31T18:11:30.522Z,8.70
2018-05-31T18:13:58.306Z,10.07
2018-05-31T18:16:25.954Z,9.07
2018-05-31T18:18:59.771Z,9.80
2018-05-31T18:21:27.619Z,9.57
2018-05-31T18:23:54.609Z,9.50
2018-05-31T18:26:21.624Z,9.83
2018-05-31T18:28:48.643Z,9.20
2018-05-31T18:31:15.658Z,9.37
2018-05-31T18:33:42.774Z,9.73
2018-05-31T18:36:10.541Z,9.33
2018-05-31T18:38:38.299Z,10.00
2018-05-31T18:41:06.100Z,9.80
2018-05-31T18:43:33.170Z,9.77
2018-05-31T18:46:00.174Z,9.30
2018-05-31T18:48:33.769Z,9.33
2018-05-31T18:51:01.585Z,9.20
2018-05-31T18:53:28.634Z,9.70
2018-05-31T18:55:55.742Z,9.67
2018-05-31T18:58:23.661Z,10.43
2018-05-31T19:00:50.740Z,10.67
2018-05-31T19:03:18.533Z,10.80
2018-05-31T19:05:45.522Z,10.43
2018-05-31T19:08:12.524Z,10.70
2018-05-31T19:10:39.542Z,11.07
2018-05-31T19:13:13.222Z,11.80
2018-05-31T19:15:46.298Z,12.23
2018-05-31T19:18:19.309Z,11.30
2018-05-31T19:20:53.331Z,11.20
2018-05-31T19:23:20.329Z,11.47
2018-05-31T19:25:47.371Z,11.23
2018-05-31T19:28:14.410Z,11.47
2018-05-31T19:30:47.502Z,12.00
2018-05-31T19:33:14.603Z,11.47
2018-05-31T19:35:47.639Z,11.50
2018-05-31T19:38:15.439Z,10.80
2018-05-31T19:40:42.621Z,10.80
2018-05-31T19:43:16.432Z,11.67
2018-05-31T19:45:44.342Z,11.07
2018-05-31T19:48:11.478Z,12.30
2018-05-31T19:50:38.659Z,11.67
2018-05-31T19:53:12.475Z,12.10
2018-05-31T19:55:39.849Z,11.60
2018-05-31T19:58:13.638Z,11.97
2018-05-31T20:00:47.549Z,12.33
2018-05-31T20:03:22.680Z,12.23
2018-05-31T20:05:53.260Z,11.60
2018-05-31T20:08:20.385Z,12.40
2018-05-31T20:10:47.487Z,13.00
2018-05-31T20:13:14.489Z,12.00
2018-05-31T20:15:41.530Z,12.20
2018-05-31T20:18:14.614Z,11.23
2018-05-31T20:20:54.125Z,11.73
2018-05-31T20:23:21.138Z,11.67
2018-05-31T20:25:48.170Z,11.33
2018-05-31T20:28:15.989Z,11.67
2018-05-31T20:30:43.136Z,11.50
2018-05-31T20:35:42.794Z,11.30
2018-05-31T20:38:15.867Z,11.43
2018-05-31T20:40:42.848Z,11.67
2018-05-31T20:43:10.628Z,11.60
2018-05-31T20:45:43.611Z,11.43
2018-05-31T20:48:10.654Z,11.00
2018-05-31T20:50:38.425Z,11.40
2018-05-31T20:53:05.515Z,11.00
2018-05-31T20:55:32.580Z,11.67
2018-05-31T20:57:59.572Z,12.13
2018-05-31T21:00:26.606Z,11.23
2018-05-31T21:02:54.367Z,11.80
2018-05-31T21:05:22.135Z,10.97
2018-05-31T21:07:49.172Z,11.10
2018-05-31T21:10:16.905Z,10.97
2018-05-31T21:12:43.957Z,11.00
2018-05-31T21:15:11.970Z,11.13
2018-05-31T21:17:44.954Z,10.40
2018-05-31T21:20:12.006Z,10.30
2018-05-31T21:22:39.062Z,10.67
2018-05-31T21:25:06.067Z,9.70
2018-05-31T21:27:33.107Z,9.30
2018-05-31T21:30:00.144Z,9.90
2018-05-31T21:32:27.232Z,9.27
2018-05-31T21:34:54.307Z,9.80
2018-05-31T21:37:21.399Z,9.80
2018-05-31T21:39:48.590Z,10.00
2018-05-31T21:42:15.647Z,10.30
2018-05-31T21:44:42.674Z,9.67
2018-05-31T21:47:16.525Z,9.63
2018-05-31T21:49:43.559Z,9.17
2018-05-31T21:52:10.557Z,9.40
2018-05-31T21:54:37.596Z,9.07
2018-05-31T21:57:04.681Z,9.20
2018-05-31T21:59:32.462Z,8.63
2018-05-31T22:01:59.512Z,8.67
2018-05-31T22:04:32.428Z,9.03
2018-05-31T22:06:59.457Z,8.93
2018-05-31T22:09:27.074Z,8.90
2018-05-31T22:11:54.919Z,8.97
2018-05-31T22:14:21.969Z,8.43
2018-05-31T22:16:49.062Z,9.17
2018-05-31T22:19:16.085Z,9.07
2018-05-31T22:21:43.888Z,9.20
2018-05-31T22:24:10.921Z,8.37
2018-05-31T22:26:37.949Z,8.77
2018-05-31T22:29:05.729Z,8.93
2018-05-31T22:31:38.631Z,8.90
2018-05-31T22:34:05.672Z,9.00
2018-05-31T22:36:32.743Z,9.07
2018-05-31T22:38:59.837Z,8.73
2018-05-31T22:41:27.642Z,8.03
2018-05-31T22:43:54.662Z,8.43
2018-05-31T22:46:21.691Z,7.90
2018-05-31T22:48:49.500Z,8.33
2018-05-31T22:51:16.516Z,8.33
2018-05-31T22:53:44.351Z,8.10
2018-05-31T22:56:11.484Z,7.77
2018-05-31T22:58:38.532Z,7.90
2018-05-31T23:01:05.937Z,8.20
2018-05-31T23:03:33.009Z,8.70
2018-05-31T23:06:00.009Z,8.33
2018-05-31T23:08:32.993Z,8.03
2018-05-31T23:11:00.024Z,8.07
2018-05-31T23:13:27.079Z,8.57
2018-05-31T23:15:54.139Z,8.23
2018-05-31T23:18:21.203Z,7.70
2018-05-31T23:20:48.980Z,7.50
2018-05-31T23:23:16.709Z,7.80
2018-05-31T23:25:43.696Z,7.93
2018-05-31T23:28:11.495Z,7.83
2018-05-31T23:30:38.516Z,7.80
2018-05-31T23:33:05.558Z,8.03
2018-05-31T23:35:33.442Z,7.70
2018-05-31T23:38:00.471Z,8.00
2018-05-31T23:40:28.264Z,7.57
2018-05-31T23:42:55.301Z,7.73
2018-05-31T23:45:22.514Z,7.93
2018-05-31T23:47:49.569Z,8.13
2018-05-31T23:50:17.340Z,9.47
2018-05-31T23:52:44.326Z,8.57
2018-05-31T23:55:12.106Z,8.80
2018-05-31T23:57:41.073Z,9.53
